Time;durP1;ratioP1;P1;durP2;ratioP2;P2;SDS_P1;SDS_P2;PMS_P1;PMS_P2;Temp;Humidity;BMP_temperature;BMP_pressure;BME280_temperature;BME280_humidity;BME280_pressure;Samples;Min_cycle;Max_cycle;Signal;HPM_P1;HPM_P2
2023/10/17 00:01:00;;;;;;;4.18;2.58;;;14.50;84.40;;;;;;10940309;32;20068;-68
2023/10/17 00:07:02;;;;;;;1.85;1.50;;;14.40;84.20;;;;;;10940257;32;20023;-68
2023/10/17 00:13:18;;;;;;;2.10;1.75;;;14.50;84.00;;;;;;10926247;32;20039;-69
2023/10/17 00:19:33;;;;;;;2.65;1.65;;;14.40;84.10;;;;;;10946065;32;20050;-68
2023/10/17 00:25:36;;;;;;;1.50;1.37;;;14.30;83.90;;;;;;10947917;32;20417;-68
2023/10/17 00:31:38;;;;;;;2.72;1.85;;;14.30;83.70;;;;;;10946816;32;20049;-68
2023/10/17 00:38:15;;;;;;;5.28;1.85;;;14.30;83.70;;;;;;10944247;32;20393;-68
2023/10/17 00:44:27;;;;;;;2.17;1.58;;;14.20;83.80;;;;;;10946107;32;20051;-68
2023/10/17 00:50:29;;;;;;;2.35;1.80;;;14.20;84.20;;;;;;10931710;32;20046;-68
2023/10/17 00:56:31;;;;;;;1.60;1.50;;;14.10;84.30;;;;;;10945575;32;20401;-68
2023/10/17 01:02:44;;;;;;;2.65;1.98;;;14.10;84.10;;;;;;10931550;32;20035;-68
2023/10/17 01:08:50;;;;;;;4.85;1.85;;;14.10;84.00;;;;;;10945381;32;20046;-68
2023/10/17 01:14:54;;;;;;;3.25;1.52;;;14.10;83.60;;;;;;10945041;32;20054;-68
2023/10/17 01:20:55;;;;;;;2.60;1.60;;;14.00;83.40;;;;;;10944820;32;20049;-68
2023/10/17 01:26:59;;;;;;;2.37;1.42;;;13.90;83.30;;;;;;10943932;32;20299;-68
2023/10/17 01:33:02;;;;;;;1.90;1.80;;;13.90;83.70;;;;;;10944494;32;20023;-68
2023/10/17 01:39:11;;;;;;;2.00;1.70;;;13.80;83.60;;;;;;10944109;32;20064;-68
2023/10/17 01:45:14;;;;;;;2.08;1.52;;;13.80;83.30;;;;;;10943559;32;20409;-68
2023/10/17 01:51:17;;;;;;;3.03;2.03;;;13.80;83.00;;;;;;10943628;32;20045;-68
2023/10/17 01:57:21;;;;;;;1.58;1.20;;;13.70;82.60;;;;;;10943523;32;20023;-68
2023/10/17 02:03:23;;;;;;;2.92;1.90;;;13.70;82.60;;;;;;10943408;32;20019;-69
2023/10/17 02:15:38;;;;;;;5.40;1.83;;;13.60;82.40;;;;;;10943673;32;20053;-68
2023/10/17 02:21:40;;;;;;;1.50;1.40;;;13.50;82.50;;;;;;10941652;32;20341;-68
2023/10/17 02:27:44;;;;;;;2.35;1.60;;;13.50;82.70;;;;;;10942413;32;20526;-68
2023/10/17 02:33:46;;;;;;;2.33;1.90;;;13.50;82.80;;;;;;10942495;32;20022;-68
2023/10/17 02:39:49;;;;;;;2.95;2.05;;;13.50;82.70;;;;;;10942138;32;20045;-68
2023/10/17 02:45:53;;;;;;;1.87;1.52;;;13.50;83.00;;;;;;10941871;32;20019;-68
2023/10/17 02:51:55;;;;;;;1.75;1.58;;;13.50;82.70;;;;;;10941909;32;20015;-68
2023/10/17 02:57:57;;;;;;;1.60;1.40;;;13.40;82.30;;;;;;10941746;32;20081;-68
2023/10/17 03:04:07;;;;;;;3.00;1.40;;;13.30;82.20;;;;;;10939128;32;20053;-68
2023/10/17 03:10:20;;;;;;;1.55;1.45;;;13.20;82.10;;;;;;10941578;32;20019;-68
2023/10/17 03:16:25;;;;;;;2.12;1.60;;;13.20;82.00;;;;;;10941425;32;20015;-68
2023/10/17 03:22:27;;;;;;;2.25;1.60;;;13.10;81.90;;;;;;10941068;32;20058;-68
2023/10/17 03:28:33;;;;;;;1.50;1.25;;;13.00;81.90;;;;;;10941268;32;20019;-68
2023/10/17 03:34:35;;;;;;;2.22;2.00;;;13.00;81.70;;;;;;10941021;32;20027;-68
2023/10/17 03:40:41;;;;;;;2.67;1.37;;;12.90;81.70;;;;;;10941080;32;20058;-68
2023/10/17 03:46:46;;;;;;;2.78;1.62;;;12.80;81.80;;;;;;10940798;32;20046;-70
2023/10/17 03:52:48;;;;;;;6.40;2.17;;;12.90;81.50;;;;;;10945131;32;20050;-68
2023/10/17 04:05:17;;;;;;;1.52;1.42;;;12.90;81.70;;;;;;10947769;32;20042;-68
2023/10/17 04:17:29;;;;;;;3.15;1.52;;;12.80;81.50;;;;;;10947936;32;20022;-68
2023/10/17 04:23:32;;;;;;;2.53;1.83;;;12.80;81.70;;;;;;10947139;32;20045;-68
2023/10/17 04:29:34;;;;;;;2.50;2.12;;;12.70;81.60;;;;;;10947048;32;20019;-68
2023/10/17 04:35:43;;;;;;;1.50;1.40;;;12.70;81.50;;;;;;10946782;32;20049;-68
2023/10/17 04:48:11;;;;;;;3.03;2.03;;;12.40;81.50;;;;;;10943264;32;20027;-70
2023/10/17 04:54:39;;;;;;;2.40;1.48;;;12.50;81.50;;;;;;10946555;32;20057;-69
2023/10/17 06:35:25;;;;;;;2.53;1.60;;;12.30;81.90;;;;;;10826798;32;20032;-70
2023/10/17 06:41:38;;;;;;;3.10;2.05;;;12.40;82.10;;;;;;10826588;32;20410;-70
2023/10/17 06:47:59;;;;;;;2.17;1.95;;;12.40;82.10;;;;;;10534862;32;10003989;-70
2023/10/17 06:54:07;;;;;;;1.75;1.48;;;12.40;82.40;;;;;;10862855;32;20094;-70
2023/10/17 07:00:16;;;;;;;2.57;2.13;;;12.50;82.60;;;;;;10859892;32;20448;-71
2023/10/17 07:06:20;;;;;;;;;;;12.50;82.80;;;;;;10904253;32;20046;-70
2023/10/17 07:12:22;;;;;;;3.25;2.22;;;12.60;83.00;;;;;;10902804;32;19926;-69
2023/10/17 07:18:43;;;;;;;2.97;2.28;;;12.70;83.30;;;;;;10903860;32;20020;-71
2023/10/17 07:24:48;;;;;;;3.90;1.52;;;12.60;83.50;;;;;;10903360;32;20295;-70
2023/10/17 07:30:57;;;;;;;2.53;1.95;;;12.70;83.70;;;;;;10902689;32;20038;-70
2023/10/17 07:43:22;;;;;;;2.12;1.50;;;12.80;83.80;;;;;;10785088;33;20082;-69
2023/10/17 07:49:26;;;;;;;1.85;1.70;;;12.90;84.00;;;;;;10785528;33;20041;-70
2023/10/17 08:01:32;;;;;;;1.90;1.40;;;13.20;84.20;;;;;;10752305;33;20063;-70
2023/10/17 08:07:34;;;;;;;2.33;1.45;;;13.20;84.60;;;;;;10752110;33;20016;-70
2023/10/17 08:13:37;;;;;;;1.67;1.58;;;13.20;84.30;;;;;;10754708;33;20449;-70
2023/10/17 08:26:00;;;;;;;3.95;1.98;;;13.40;84.50;;;;;;10897217;32;20354;-70
2023/10/17 08:32:14;;;;;;;2.90;1.65;;;13.50;84.20;;;;;;10900597;32;20024;-70
2023/10/17 08:38:17;;;;;;;1.55;1.45;;;13.50;84.40;;;;;;10905699;32;20019;-70
2023/10/17 08:44:21;;;;;;;1.40;1.30;;;13.60;84.10;;;;;;10909203;32;20024;-70
2023/10/17 08:50:24;;;;;;;1.50;1.40;;;13.70;84.10;;;;;;10908928;32;20046;-70
2023/10/17 08:56:28;;;;;;;3.28;2.17;;;13.80;84.20;;;;;;10908457;32;20026;-70
2023/10/17 09:02:32;;;;;;;1.60;1.27;;;13.80;83.60;;;;;;10907761;32;20039;-70
2023/10/17 09:08:55;;;;;;;3.00;1.83;;;13.90;83.90;;;;;;10908914;32;20390;-71
2023/10/17 09:14:58;;;;;;;1.30;1.20;;;14.00;83.30;;;;;;10907960;32;20057;-69
2023/10/17 09:21:05;;;;;;;2.97;1.73;;;14.00;83.20;;;;;;10907811;32;20011;-69
2023/10/17 09:27:14;;;;;;;1.37;1.00;;;14.20;83.10;;;;;;10871353;32;20032;-70
2023/10/17 09:33:30;;;;;;;3.17;1.55;;;14.20;82.30;;;;;;10871250;32;20020;-69
2023/10/17 09:39:34;;;;;;;2.83;1.62;;;14.30;81.70;;;;;;10870310;32;20042;-70
2023/10/17 09:45:41;;;;;;;1.62;1.00;;;14.50;80.80;;;;;;10869362;32;20019;-69
2023/10/17 09:51:46;;;;;;;6.37;1.27;;;14.60;80.60;;;;;;10868443;32;20046;-70
2023/10/17 09:57:55;;;;;;;1.37;1.27;;;14.70;80.40;;;;;;10868969;32;20055;-70
2023/10/17 10:04:01;;;;;;;0.85;0.77;;;14.80;80.20;;;;;;10867345;32;20035;-70
2023/10/17 10:10:09;;;;;;;2.70;1.85;;;14.90;80.30;;;;;;10868408;32;20038;-70
2023/10/17 10:16:12;;;;;;;1.80;0.98;;;15.10;80.50;;;;;;10869811;32;20046;-71
2023/10/17 10:22:15;;;;;;;1.25;0.93;;;15.10;79.10;;;;;;10868604;32;20389;-70
2023/10/17 10:28:25;;;;;;;2.05;1.27;;;15.20;78.60;;;;;;10869454;32;20016;-69
2023/10/17 10:34:27;;;;;;;3.62;1.87;;;15.30;78.20;;;;;;10868649;32;20042;-70
2023/10/17 10:40:34;;;;;;;3.50;1.65;;;15.50;78.50;;;;;;10869016;32;20020;-70
2023/10/17 10:46:36;;;;;;;1.17;1.12;;;15.70;77.50;;;;;;10868745;32;20015;-70
2023/10/17 10:52:43;;;;;;;3.05;1.45;;;15.80;77.00;;;;;;10879822;32;20062;-70
2023/10/17 10:58:55;;;;;;;1.50;1.33;;;16.10;77.20;;;;;;10903795;32;20057;-70
2023/10/17 11:04:58;;;;;;;1.55;1.37;;;16.30;76.90;;;;;;10905041;32;20038;-71
2023/10/17 11:11:00;;;;;;;2.30;1.58;;;16.50;75.80;;;;;;10905365;32;20045;-70
2023/10/17 11:17:02;;;;;;;1.65;1.45;;;16.60;73.10;;;;;;10900730;32;20060;-70
2023/10/17 11:23:08;;;;;;;1.67;1.50;;;16.80;72.50;;;;;;10902183;32;20015;-70
2023/10/17 11:29:12;;;;;;;3.08;1.87;;;17.00;72.60;;;;;;10899875;32;20038;-70
2023/10/17 11:35:29;;;;;;;2.03;1.30;;;17.10;72.10;;;;;;10903632;32;20042;-70
2023/10/17 11:41:45;;;;;;;1.60;1.47;;;17.10;72.20;;;;;;10904783;32;20038;-70
2023/10/17 11:47:55;;;;;;;2.53;1.60;;;17.20;73.90;;;;;;10903349;32;20276;-70
2023/10/17 11:54:22;;;;;;;2.22;1.30;;;17.20;73.10;;;;;;10904776;32;20038;-69
2023/10/17 12:00:28;;;;;;;1.92;1.67;;;17.20;71.60;;;;;;10904392;32;20341;-70
2023/10/17 12:06:31;;;;;;;4.82;2.22;;;17.20;70.90;;;;;;10903233;32;20378;-70
2023/10/17 12:12:34;;;;;;;3.75;2.33;;;17.20;70.40;;;;;;10906462;32;20406;-70
2023/10/17 12:18:39;;;;;;;3.42;2.08;;;17.10;71.20;;;;;;10911191;32;20023;-69
2023/10/17 12:24:45;;;;;;;4.47;2.72;;;17.00;70.80;;;;;;10911335;32;20020;-70
2023/10/17 12:30:54;;;;;;;4.47;2.28;;;17.10;70.60;;;;;;10908499;32;20027;-70
2023/10/17 12:36:56;;;;;;;4.75;1.90;;;16.90;69.90;;;;;;10909413;32;20050;-70
2023/10/17 12:43:01;;;;;;;7.95;2.10;;;16.90;69.90;;;;;;10910774;32;20024;-70
2023/10/17 12:49:03;;;;;;;3.40;2.33;;;16.90;70.50;;;;;;10908915;32;20050;-69
2023/10/17 12:55:13;;;;;;;4.43;2.22;;;16.90;71.10;;;;;;10907100;32;20400;-69
2023/10/17 13:01:17;;;;;;;5.47;2.70;;;17.00;70.00;;;;;;10909552;32;20024;-70
2023/10/17 13:07:20;;;;;;;3.03;2.10;;;17.10;69.20;;;;;;10892735;32;20439;-69
2023/10/17 13:13:26;;;;;;;2.67;2.00;;;17.10;68.50;;;;;;10886121;32;20341;-70
2023/10/17 13:19:33;;;;;;;2.72;2.05;;;17.10;69.10;;;;;;10905379;32;20054;-70
2023/10/17 13:25:38;;;;;;;2.97;1.87;;;17.10;69.30;;;;;;10881526;32;20024;-69
2023/10/17 13:31:40;;;;;;;6.18;2.08;;;17.10;69.70;;;;;;10870090;32;20054;-70
2023/10/17 13:37:51;;;;;;;3.60;2.25;;;17.20;69.50;;;;;;10869724;32;20023;-69
2023/10/17 13:43:53;;;;;;;3.20;2.30;;;17.20;68.80;;;;;;10867766;32;20395;-69
2023/10/17 13:49:55;;;;;;;2.15;1.83;;;17.30;69.00;;;;;;10869742;32;20334;-70
2023/10/17 13:56:14;;;;;;;3.28;2.10;;;17.30;68.80;;;;;;10868482;32;20023;-70
2023/10/17 14:02:20;;;;;;;2.58;2.12;;;17.30;69.10;;;;;;10884851;32;20027;-70
2023/10/17 14:08:22;;;;;;;1.40;1.15;;;17.30;70.10;;;;;;10887298;32;20397;-69
2023/10/17 14:14:45;;;;;;;3.58;2.03;;;17.20;69.30;;;;;;10906024;32;20042;-69
2023/10/17 14:21:16;;;;;;;3.62;2.03;;;17.30;68.70;;;;;;10905160;32;20027;-69
2023/10/17 14:27:20;;;;;;;4.37;2.40;;;17.30;68.40;;;;;;10905409;32;20042;-69
2023/10/17 14:33:22;;;;;;;2.30;1.85;;;17.50;68.40;;;;;;10903517;32;20039;-69
2023/10/17 14:39:29;;;;;;;4.28;2.78;;;17.50;68.60;;;;;;10904977;32;20346;-70
2023/10/17 14:45:31;;;;;;;6.60;2.65;;;17.50;68.50;;;;;;10889735;32;20341;-70
2023/10/17 14:51:46;;;;;;;3.40;2.08;;;17.50;68.80;;;;;;10942445;27;20069;-70
2023/10/17 14:57:48;;;;;;;8.88;2.62;;;17.50;68.60;;;;;;10943589;32;20022;-70
2023/10/17 15:03:54;;;;;;;8.30;3.42;;;17.40;68.40;;;;;;10941256;32;20040;-70
2023/10/17 15:09:58;;;;;;;5.35;2.58;;;17.40;68.40;;;;;;10941387;32;20011;-69
2023/10/17 15:16:02;;;;;;;6.43;3.10;;;17.50;68.10;;;;;;10941836;32;20447;-70
2023/10/17 15:22:15;;;;;;;4.70;2.45;;;17.50;67.70;;;;;;10937911;32;20023;-70
2023/10/17 15:28:17;;;;;;;3.17;2.10;;;17.60;67.70;;;;;;10952718;32;20015;-69
2023/10/17 15:34:21;;;;;;;4.60;2.35;;;17.50;68.30;;;;;;10942322;32;20072;-69
2023/10/17 15:40:48;;;;;;;2.85;1.80;;;17.50;68.10;;;;;;10940852;32;20015;-69
2023/10/17 15:46:52;;;;;;;6.47;2.37;;;17.50;68.60;;;;;;10943233;32;20045;-69
2023/10/17 15:52:54;;;;;;;3.92;2.08;;;17.30;69.60;;;;;;10949033;32;20382;-69
2023/10/17 15:58:57;;;;;;;4.62;1.85;;;17.10;70.30;;;;;;10947993;32;20023;-69
2023/10/17 16:05:10;;;;;;;2.47;1.62;;;17.00;70.60;;;;;;10948241;32;20015;-70
2023/10/17 16:11:12;;;;;;;3.75;2.28;;;16.90;70.90;;;;;;10948585;32;20019;-70
2023/10/17 16:17:14;;;;;;;2.30;1.58;;;16.80;71.70;;;;;;10947774;32;20019;-70
2023/10/17 16:23:20;;;;;;;3.03;2.08;;;16.60;72.50;;;;;;10946890;32;20049;-70
2023/10/17 16:29:22;;;;;;;7.45;4.65;;;16.40;73.50;;;;;;10947024;32;20019;-69
2023/10/17 16:35:25;;;;;;;12.00;8.23;;;16.30;73.90;;;;;;10946033;32;20337;-69
2023/10/17 16:41:27;;;;;;;7.87;5.87;;;16.20;74.10;;;;;;10947215;32;20337;-69
2023/10/17 16:47:30;;;;;;;10.68;6.30;;;16.20;74.20;;;;;;10946024;32;20388;-69
2023/10/17 16:53:33;;;;;;;6.60;4.40;;;16.10;74.30;;;;;;10945601;32;20030;-69
2023/10/17 16:59:35;;;;;;;8.73;3.80;;;16.00;74.60;;;;;;10942063;32;20027;-69
2023/10/17 17:05:38;;;;;;;14.75;3.83;;;16.00;74.80;;;;;;10946133;32;20406;-69
2023/10/17 17:11:40;;;;;;;5.15;2.75;;;15.90;75.00;;;;;;10932372;32;20062;-69
2023/10/17 17:17:43;;;;;;;4.25;2.83;;;15.80;75.20;;;;;;10906838;32;20047;-69
2023/10/17 17:23:45;;;;;;;11.77;3.83;;;15.80;75.40;;;;;;10907995;32;20019;-69
2023/10/17 17:29:51;;;;;;;4.65;2.87;;;15.70;75.70;;;;;;10908758;32;20008;-69
2023/10/17 17:35:53;;;;;;;4.68;2.58;;;15.70;75.80;;;;;;10907393;32;20057;-69
2023/10/17 17:41:56;;;;;;;4.55;2.85;;;15.70;76.20;;;;;;10908155;32;20007;-69
2023/10/17 17:47:58;;;;;;;4.47;2.50;;;15.60;76.50;;;;;;10907017;32;20334;-69
2023/10/17 17:54:04;;;;;;;5.50;3.90;;;15.50;76.60;;;;;;10906525;32;20034;-69
2023/10/17 18:00:14;;;;;;;5.78;3.37;;;15.50;76.90;;;;;;10906564;32;20413;-69
2023/10/17 18:06:17;;;;;;;5.20;3.10;;;15.40;76.90;;;;;;10905791;32;20435;-69
2023/10/17 18:12:20;;;;;;;3.05;2.22;;;15.30;77.10;;;;;;10904259;32;20019;-69
2023/10/17 18:18:24;;;;;;;6.15;2.33;;;15.20;77.30;;;;;;10933392;32;20447;-69
2023/10/17 18:24:30;;;;;;;4.83;3.30;;;15.20;77.40;;;;;;10949722;32;20369;-69
2023/10/17 18:30:32;;;;;;;5.78;3.22;;;15.20;77.50;;;;;;10938231;32;20528;-69
2023/10/17 18:36:35;;;;;;;5.95;3.60;;;15.10;77.60;;;;;;10937285;32;20065;-69
2023/10/17 18:42:38;;;;;;;9.02;4.15;;;15.00;78.00;;;;;;10938010;32;20417;-69
2023/10/17 18:48:40;;;;;;;9.77;4.97;;;15.00;78.20;;;;;;10941700;32;20058;-69
2023/10/17 18:54:43;;;;;;;11.55;4.40;;;14.90;78.00;;;;;;10940777;32;20364;-69
2023/10/17 19:00:45;;;;;;;7.80;4.25;;;14.80;78.10;;;;;;10939501;32;20023;-69
2023/10/17 19:06:47;;;;;;;9.98;6.35;;;14.80;78.30;;;;;;10952532;32;20058;-69
2023/10/17 19:12:50;;;;;;;9.35;6.32;;;14.80;78.70;;;;;;10937344;32;20027;-69
2023/10/17 19:18:52;;;;;;;10.68;5.93;;;14.80;78.70;;;;;;10936858;32;20023;-69
2023/10/17 19:25:05;;;;;;;7.20;4.72;;;14.70;78.90;;;;;;10937420;32;20019;-69
2023/10/17 19:31:08;;;;;;;10.65;5.75;;;14.60;78.80;;;;;;10936937;32;20215;-69
2023/10/17 19:37:14;;;;;;;6.53;4.32;;;14.60;78.90;;;;;;10941986;32;20055;-69
2023/10/17 19:43:42;;;;;;;6.43;4.62;;;14.60;79.00;;;;;;10940012;32;20089;-69
2023/10/17 19:49:44;;;;;;;6.82;4.07;;;14.40;79.70;;;;;;10940512;32;20015;-69
2023/10/17 19:55:48;;;;;;;8.15;5.53;;;14.40;79.60;;;;;;10937480;32;20352;-69
2023/10/17 20:01:50;;;;;;;7.53;4.18;;;14.30;79.40;;;;;;10936793;32;20067;-69
2023/10/17 20:07:52;;;;;;;9.88;5.85;;;14.30;79.40;;;;;;10936527;32;20035;-69
2023/10/17 20:13:56;;;;;;;8.00;4.95;;;14.30;79.30;;;;;;10938955;32;20088;-69
2023/10/17 20:19:58;;;;;;;5.35;3.95;;;14.30;79.20;;;;;;10940287;32;20027;-69
2023/10/17 20:26:00;;;;;;;8.50;4.50;;;14.20;79.20;;;;;;10940481;32;20055;-69
2023/10/17 20:32:16;;;;;;;10.10;6.37;;;14.00;79.60;;;;;;10939716;32;20053;-69
2023/10/17 20:38:18;;;;;;;10.15;6.45;;;14.00;79.90;;;;;;10947108;32;20057;-69
2023/10/17 20:44:21;;;;;;;7.57;4.90;;;14.00;80.00;;;;;;10947677;32;20045;-70
2023/10/17 20:50:24;;;;;;;8.90;5.50;;;14.00;79.90;;;;;;10945550;32;20057;-69
2023/10/17 20:56:26;;;;;;;8.25;5.80;;;13.80;80.50;;;;;;10946476;32;20018;-69
2023/10/17 21:02:29;;;;;;;14.20;6.12;;;13.90;80.90;;;;;;10947125;32;20396;-69
2023/10/17 21:08:32;;;;;;;8.68;6.05;;;13.80;80.70;;;;;;10944856;32;20023;-69
2023/10/17 21:14:34;;;;;;;11.68;6.30;;;13.80;80.50;;;;;;10945805;32;20015;-69
2023/10/17 21:20:38;;;;;;;16.27;7.12;;;13.80;80.60;;;;;;10957217;32;20030;-69
2023/10/17 21:26:42;;;;;;;9.80;7.32;;;13.80;80.70;;;;;;10946180;32;20092;-69
2023/10/17 21:32:44;;;;;;;9.25;5.90;;;13.80;80.60;;;;;;10945364;32;20046;-69
2023/10/17 21:38:46;;;;;;;12.27;6.07;;;13.80;80.60;;;;;;10945537;32;20049;-69
2023/10/17 21:44:48;;;;;;;8.60;5.82;;;13.80;80.60;;;;;;10944641;32;20427;-69
2023/10/17 21:50:51;;;;;;;7.57;5.45;;;13.70;80.90;;;;;;10944550;32;20051;-69
2023/10/17 21:56:54;;;;;;;12.63;5.45;;;13.60;81.30;;;;;;10944151;32;20401;-69
2023/10/17 22:02:56;;;;;;;5.22;4.15;;;13.50;81.70;;;;;;10945349;32;20015;-69
2023/10/17 22:08:59;;;;;;;9.02;5.00;;;13.50;81.70;;;;;;10943801;32;20018;-69
2023/10/17 22:15:01;;;;;;;9.50;4.87;;;13.50;81.70;;;;;;10944839;32;20050;-69
2023/10/17 22:21:05;;;;;;;5.93;4.12;;;13.50;81.70;;;;;;10944419;32;20042;-69
2023/10/17 22:27:07;;;;;;;7.82;4.55;;;13.50;82.00;;;;;;10956112;32;20027;-69
2023/10/17 22:33:09;;;;;;;4.60;2.70;;;13.50;82.00;;;;;;10943512;32;20397;-69
2023/10/17 22:39:18;;;;;;;9.90;4.50;;;13.40;81.80;;;;;;10941618;32;20049;-69
2023/10/17 22:45:20;;;;;;;5.57;4.17;;;13.40;81.90;;;;;;10943347;32;20394;-69
2023/10/17 22:51:23;;;;;;;6.53;4.43;;;13.30;82.30;;;;;;10944732;27;20034;-69
2023/10/17 22:57:27;;;;;;;9.05;4.90;;;13.30;82.50;;;;;;10943175;32;20046;-69
2023/10/17 23:03:30;;;;;;;7.10;5.00;;;13.30;82.10;;;;;;10954497;32;20045;-69
2023/10/17 23:09:33;;;;;;;6.47;4.70;;;13.30;82.10;;;;;;10942788;32;20405;-69
2023/10/17 23:15:35;;;;;;;10.25;6.07;;;13.30;82.00;;;;;;10943152;32;20018;-69
2023/10/17 23:21:37;;;;;;;10.38;6.15;;;13.30;82.10;;;;;;10941669;32;20053;-69
2023/10/17 23:27:40;;;;;;;9.93;6.20;;;13.20;82.10;;;;;;10941663;32;20019;-69
2023/10/17 23:33:43;;;;;;;5.75;4.55;;;13.20;82.00;;;;;;10953872;32;20026;-69
2023/10/17 23:39:45;;;;;;;9.13;5.25;;;13.20;81.90;;;;;;10942698;32;20053;-69
2023/10/17 23:45:51;;;;;;;7.15;5.60;;;13.20;81.90;;;;;;10941988;32;20348;-69
2023/10/17 23:51:53;;;;;;;6.00;4.57;;;13.20;81.90;;;;;;10941830;32;20011;-69
2023/10/17 23:57:56;;;;;;;9.45;6.22;;;13.20;81.80;;;;;;10939570;32;20042;-69
